createdAt,value
2023-05-10T03:12:56.905Z,1.05
2023-05-10T03:16:10.962Z,1.00
2023-05-10T03:19:39.443Z,1.58
2023-05-10T03:22:47.918Z,1.40
2023-05-10T03:25:51.727Z,1.67
2023-05-10T03:28:55.076Z,1.02
2023-05-10T03:32:00.321Z,1.25
2023-05-10T03:38:15.682Z,1.62
2023-05-10T03:41:18.175Z,1.30
2023-05-10T03:44:20.422Z,1.87
2023-05-10T03:47:22.874Z,1.17
2023-05-10T03:50:25.593Z,1.15
2023-05-10T03:53:28.049Z,2.05
2023-05-10T03:56:31.062Z,1.60
2023-05-10T03:59:33.863Z,1.23
2023-05-10T04:02:36.182Z,1.75
2023-05-10T04:05:38.784Z,1.77
2023-05-10T04:08:40.976Z,1.33
2023-05-10T04:11:43.621Z,1.42
2023-05-10T04:14:45.783Z,2.50
2023-05-10T04:17:48.273Z,2.58
2023-05-10T04:20:50.463Z,1.33
2023-05-10T04:23:52.920Z,1.87
2023-05-10T04:26:57.630Z,1.65
2023-05-10T04:30:00.420Z,1.92
2023-05-10T04:33:05.060Z,1.75
2023-05-10T04:36:07.792Z,2.17
2023-05-10T04:39:10.775Z,1.77
2023-05-10T04:42:13.444Z,2.03
2023-05-10T04:45:15.714Z,2.47
2023-05-10T04:48:18.145Z,1.98
2023-05-10T04:51:21.448Z,1.80
2023-05-10T04:54:23.972Z,2.12
2023-05-10T04:57:26.254Z,1.67
2023-05-10T05:00:29.031Z,1.42
2023-05-10T05:03:31.378Z,1.55
2023-05-10T05:06:34.054Z,2.10
2023-05-10T05:09:37.005Z,1.80
2023-05-10T05:12:39.475Z,1.95
2023-05-10T05:15:41.727Z,1.40
2023-05-10T05:18:44.316Z,2.12
2023-05-10T05:21:46.679Z,2.17
2023-05-10T05:24:49.156Z,1.90
2023-05-10T05:27:51.301Z,1.73
2023-05-10T05:30:54.072Z,2.15
2023-05-10T05:33:56.615Z,1.73
2023-05-10T05:36:59.131Z,1.85
2023-05-10T05:43:10.120Z,2.03
2023-05-10T05:49:19.986Z,1.75
2023-05-10T05:52:22.267Z,2.17
2023-05-10T05:55:25.341Z,2.25
2023-05-10T05:58:27.909Z,2.17
2023-05-10T06:01:30.352Z,2.05
2023-05-10T06:04:32.809Z,1.67
2023-05-10T06:07:35.172Z,2.22
2023-05-10T06:10:38.192Z,2.47
2023-05-10T06:13:40.748Z,1.80
2023-05-10T06:16:50.730Z,1.30
2023-05-10T06:19:56.327Z,1.85
2023-05-10T06:22:59.629Z,2.05
2023-05-10T06:26:01.839Z,1.60
2023-05-10T06:29:04.687Z,2.10
2023-05-10T06:32:08.372Z,2.00
2023-05-10T06:35:11.027Z,1.98
2023-05-10T06:38:13.208Z,1.48
2023-05-10T06:41:15.586Z,1.70
2023-05-10T06:44:18.210Z,1.98
2023-05-10T06:47:20.879Z,1.67
2023-05-10T06:50:23.279Z,1.95
2023-05-10T06:53:25.848Z,1.75
2023-05-10T06:56:28.347Z,1.70
2023-05-10T06:59:30.790Z,1.05
2023-05-10T07:02:33.166Z,2.10
2023-05-10T07:05:35.817Z,1.52
2023-05-10T07:08:38.248Z,1.92
2023-05-10T07:11:40.669Z,1.87
2023-05-10T07:14:43.301Z,2.33
2023-05-10T07:17:46.553Z,2.05
2023-05-10T07:20:48.847Z,2.08
2023-05-10T07:23:51.284Z,1.90
2023-05-10T07:26:53.497Z,2.50
2023-05-10T07:29:57.500Z,1.90
2023-05-10T07:33:00.254Z,1.98
2023-05-10T07:36:02.876Z,1.77
2023-05-10T07:39:06.337Z,2.33
2023-05-10T07:42:09.258Z,1.40
2023-05-10T07:45:11.913Z,1.52
2023-05-10T07:48:14.419Z,2.10
2023-05-10T07:51:16.711Z,1.42
2023-05-10T07:54:19.197Z,1.60
2023-05-10T07:57:21.898Z,1.85
2023-05-10T08:00:24.319Z,1.62
2023-05-10T08:03:26.737Z,1.33
2023-05-10T08:06:30.820Z,1.95
2023-05-10T08:09:33.401Z,1.87
2023-05-10T08:12:35.549Z,1.67
2023-05-10T08:15:38.014Z,2.00
2023-05-10T08:18:41.161Z,1.77
2023-05-10T08:21:43.606Z,1.60
2023-05-10T08:24:47.284Z,1.48
2023-05-10T08:27:50.355Z,2.05
2023-05-10T08:30:52.538Z,1.83
2023-05-10T08:33:54.987Z,1.48
2023-05-10T08:36:57.151Z,1.95
2023-05-10T08:39:59.612Z,2.03
2023-05-10T08:43:10.061Z,1.73
2023-05-10T08:46:18.390Z,1.70
2023-05-10T08:49:21.158Z,1.25
2023-05-10T08:52:26.817Z,1.70
2023-05-10T08:55:29.314Z,1.27
2023-05-10T08:58:32.066Z,1.87
2023-05-10T09:01:37.498Z,1.30
2023-05-10T09:04:40.098Z,1.62
2023-05-10T09:07:42.984Z,1.55
2023-05-10T09:10:48.248Z,1.40
2023-05-10T09:13:53.527Z,2.83
2023-05-10T09:16:57.422Z,1.02
2023-05-10T09:20:00.766Z,1.67
2023-05-10T09:23:03.562Z,1.92
2023-05-10T09:26:06.617Z,1.37
2023-05-10T09:29:09.436Z,1.62
2023-05-10T09:32:13.922Z,1.58
2023-05-10T09:35:27.994Z,1.58
2023-05-10T09:38:48.346Z,1.75
2023-05-10T09:41:55.929Z,1.40
2023-05-10T09:45:16.016Z,1.70
2023-05-10T09:48:18.633Z,1.62
2023-05-10T09:51:25.489Z,1.95
2023-05-10T09:54:28.068Z,1.67
2023-05-10T09:57:30.561Z,1.60
2023-05-10T10:00:37.892Z,1.70
2023-05-10T10:03:44.452Z,1.60
2023-05-10T10:06:46.734Z,1.52
2023-05-10T10:09:49.466Z,1.52
2023-05-10T10:12:52.846Z,1.62
2023-05-10T10:15:55.698Z,1.52
2023-05-10T10:18:58.194Z,1.90
2023-05-10T10:22:01.354Z,1.48
2023-05-10T10:25:05.125Z,1.30
2023-05-10T10:28:28.398Z,1.25
2023-05-10T10:31:53.209Z,1.65
2023-05-10T10:34:57.235Z,1.33
2023-05-10T10:37:59.781Z,1.55
2023-05-10T10:41:28.232Z,1.00
2023-05-10T10:44:34.627Z,1.10
2023-05-10T10:47:38.335Z,1.10
2023-05-10T10:50:47.865Z,1.10
2023-05-10T10:53:50.722Z,1.10
2023-05-10T10:57:15.368Z,1.10
2023-05-10T11:00:37.919Z,1.35
2023-05-10T11:03:40.315Z,1.30
2023-05-10T11:06:43.546Z,1.40
2023-05-10T11:09:48.280Z,1.05
2023-05-10T11:13:02.028Z,0.90
2023-05-10T11:16:14.893Z,1.25
2023-05-10T11:19:18.833Z,1.00
2023-05-10T11:22:20.967Z,1.20
2023-05-10T11:25:29.557Z,1.10
2023-05-10T11:28:31.807Z,1.27
2023-05-10T11:31:34.426Z,1.30
2023-05-10T11:34:36.590Z,0.90
2023-05-10T11:37:44.307Z,1.15
2023-05-10T11:40:46.595Z,1.20
2023-05-10T11:43:52.055Z,1.12
2023-05-10T11:46:54.256Z,1.23
2023-05-10T11:49:56.851Z,1.20
2023-05-10T11:53:02.017Z,1.20
2023-05-10T11:56:11.554Z,1.00
2023-05-10T11:59:15.717Z,0.95
2023-05-10T12:02:18.201Z,1.00
2023-05-10T12:05:20.879Z,1.20
2023-05-10T12:08:25.332Z,0.77
2023-05-10T12:11:29.287Z,0.90
2023-05-10T12:14:36.108Z,1.00
2023-05-10T12:17:42.685Z,0.77
2023-05-10T12:20:45.842Z,0.93
2023-05-10T12:23:51.829Z,1.15
2023-05-10T12:26:53.982Z,0.93
2023-05-10T12:29:56.464Z,1.40
2023-05-10T12:33:10.645Z,1.12
2023-05-10T12:36:15.468Z,1.20
2023-05-10T12:39:17.622Z,0.98
2023-05-10T12:42:20.033Z,0.85
2023-05-10T12:45:23.069Z,1.25
2023-05-10T12:48:25.919Z,1.05
2023-05-10T12:51:28.083Z,1.30
2023-05-10T12:54:30.810Z,0.70
2023-05-10T12:57:33.046Z,1.00
2023-05-10T13:00:35.547Z,0.80
2023-05-10T13:03:37.644Z,0.60
2023-05-10T13:06:40.279Z,0.98
2023-05-10T13:09:42.466Z,0.80
2023-05-10T13:12:46.298Z,1.00
2023-05-10T13:15:48.470Z,0.80
2023-05-10T13:18:50.925Z,1.00
2023-05-10T13:21:53.135Z,0.60
2023-05-10T13:24:55.517Z,0.70
2023-05-10T13:27:57.750Z,0.80
2023-05-10T13:31:01.005Z,0.70
2023-05-10T13:34:03.686Z,0.70
2023-05-10T13:37:06.370Z,0.80
2023-05-10T13:40:09.153Z,0.90
2023-05-10T13:43:11.811Z,0.80
2023-05-10T13:46:13.951Z,0.52
2023-05-10T13:49:16.390Z,0.55
2023-05-10T13:52:19.151Z,1.20
2023-05-10T13:55:21.587Z,1.00
2023-05-10T13:58:24.625Z,0.82
2023-05-10T14:01:27.218Z,0.90
2023-05-10T14:04:30.622Z,0.70
2023-05-10T14:07:32.762Z,0.75
2023-05-10T14:10:35.251Z,0.60
2023-05-10T14:13:37.506Z,0.90
2023-05-10T14:16:44.053Z,0.90
2023-05-10T14:19:46.328Z,0.82
2023-05-10T14:22:48.761Z,0.80
2023-05-10T14:25:52.317Z,0.62
2023-05-10T14:28:54.899Z,0.80
2023-05-10T14:31:57.124Z,0.65
2023-05-10T14:35:00.475Z,0.73
2023-05-10T14:38:05.703Z,0.80
2023-05-10T14:41:09.966Z,0.50
2023-05-10T14:44:13.492Z,0.80
2023-05-10T14:47:15.872Z,1.12
2023-05-10T14:50:32.192Z,1.12
2023-05-10T14:53:38.156Z,0.85
2023-05-10T14:56:42.443Z,0.75
2023-05-10T14:59:46.428Z,0.70
2023-05-10T15:02:49.371Z,0.60
2023-05-10T15:05:53.048Z,1.05
2023-05-10T15:08:55.168Z,0.52
2023-05-10T15:11:57.547Z,0.60
2023-05-10T15:14:59.692Z,0.77
2023-05-10T15:18:02.121Z,0.45
2023-05-10T15:21:04.270Z,0.60
2023-05-10T15:24:07.087Z,0.60
